createdAt,value
2019-05-03T00:02:49.447Z,8.50
2019-05-03T00:05:42.400Z,8.10
2019-05-03T00:08:12.643Z,8.40
2019-05-03T00:10:42.706Z,8.10
2019-05-03T00:13:12.719Z,8.50
2019-05-03T00:16:02.577Z,8.30
2019-05-03T00:18:32.824Z,8.00
2019-05-03T00:21:02.833Z,8.50
2019-05-03T00:23:32.758Z,8.30
2019-05-03T00:31:02.151Z,8.20
2019-05-03T00:33:32.153Z,8.20
2019-05-03T00:36:17.758Z,8.30
2019-05-03T00:41:17.035Z,8.20
2019-05-03T00:48:45.452Z,8.10
2019-05-03T00:51:15.334Z,8.20
2019-05-03T00:53:45.520Z,8.80
2019-05-03T00:56:15.497Z,8.60
2019-05-03T01:06:28.647Z,8.20
2019-05-03T01:08:58.600Z,8.20
2019-05-03T01:11:28.558Z,8.30
2019-05-03T01:18:56.813Z,8.30
2019-05-03T01:21:26.884Z,8.30
2019-05-03T01:23:56.940Z,8.10
2019-05-03T01:26:27.964Z,8.30
2019-05-03T01:28:57.894Z,8.30
2019-05-03T01:36:26.220Z,8.20
2019-05-03T01:46:23.849Z,8.20
2019-05-03T01:49:09.204Z,8.20
2019-05-03T01:54:45.497Z,8.40
2019-05-03T01:59:44.884Z,8.30
2019-05-03T02:02:28.964Z,8.30
2019-05-03T02:05:16.675Z,8.40
2019-05-03T02:07:48.563Z,8.30
2019-05-03T02:15:17.214Z,8.40
2019-05-03T02:17:47.166Z,8.30
2019-05-03T02:20:17.043Z,8.40
2019-05-03T02:22:46.971Z,8.30
2019-05-03T02:25:16.878Z,8.40
2019-05-03T02:27:47.218Z,8.40
2019-05-03T02:30:17.700Z,8.40
2019-05-03T02:32:47.803Z,8.40
2019-05-03T02:35:17.821Z,8.30
2019-05-03T02:37:53.237Z,8.30
2019-05-03T02:40:24.795Z,8.30
2019-05-03T02:43:29.625Z,7.90
2019-05-03T02:46:36.498Z,8.50
2019-05-03T02:51:48.436Z,8.30
2019-05-03T02:54:18.376Z,8.40
2019-05-03T02:59:17.466Z,8.30
2019-05-03T03:01:47.832Z,8.30
2019-05-03T03:04:18.685Z,8.40
2019-05-03T03:06:49.882Z,8.40
2019-05-03T03:09:21.650Z,8.50
2019-05-03T03:14:25.692Z,8.50
2019-05-03T03:16:58.049Z,8.50
2019-05-03T03:19:30.098Z,8.40
2019-05-03T03:22:05.902Z,8.50
2019-05-03T03:24:37.305Z,8.50
2019-05-03T03:29:38.581Z,9.10
2019-05-03T03:32:32.136Z,8.40
2019-05-03T03:37:39.875Z,8.60
2019-05-03T03:40:10.402Z,8.50
2019-05-03T03:47:46.299Z,8.40
2019-05-03T03:50:15.266Z,8.40
2019-05-03T03:52:46.573Z,8.50
2019-05-03T03:55:16.527Z,8.40
2019-05-03T03:57:47.663Z,8.40
2019-05-03T04:00:17.538Z,8.30
2019-05-03T04:02:47.667Z,8.50
2019-05-03T04:05:17.892Z,8.50
2019-05-03T04:07:48.243Z,8.40
2019-05-03T04:10:18.264Z,8.40
2019-05-03T04:12:48.632Z,8.40
2019-05-03T04:15:37.031Z,8.40
2019-05-03T04:23:20.354Z,8.40
2019-05-03T04:25:50.478Z,9.10
2019-05-03T04:30:50.301Z,8.50
2019-05-03T04:35:49.511Z,8.40
2019-05-03T04:46:06.213Z,8.60
2019-05-03T04:48:35.743Z,8.40
2019-05-03T04:53:37.699Z,8.70
2019-05-03T04:58:36.966Z,8.70
2019-05-03T05:03:36.625Z,8.70
2019-05-03T05:08:36.550Z,8.70
2019-05-03T05:13:37.714Z,8.60
2019-05-03T05:16:07.722Z,8.60
2019-05-03T05:18:48.929Z,8.70
2019-05-03T05:21:25.423Z,8.60
2019-05-03T05:27:00.903Z,8.70
2019-05-03T05:29:34.503Z,8.60
2019-05-03T05:32:05.284Z,8.40
2019-05-03T05:34:35.331Z,8.70
2019-05-03T05:37:05.568Z,8.70
2019-05-03T05:39:35.711Z,9.30
2019-05-03T05:42:05.661Z,8.70
2019-05-03T05:44:35.705Z,8.80
2019-05-03T05:52:40.902Z,8.80
2019-05-03T05:55:28.104Z,8.80
2019-05-03T05:58:15.820Z,8.80
2019-05-03T06:03:20.682Z,8.90
2019-05-03T06:08:30.998Z,8.80
2019-05-03T06:11:08.775Z,9.00
2019-05-03T06:13:44.441Z,8.70
2019-05-03T06:19:11.319Z,8.80
2019-05-03T06:22:06.046Z,9.20
2019-05-03T06:27:16.249Z,8.70
2019-05-03T06:32:30.501Z,8.80
2019-05-03T06:35:00.357Z,8.80
2019-05-03T06:40:05.814Z,8.80
2019-05-03T06:47:40.382Z,9.10
2019-05-03T06:50:08.162Z,9.30
2019-05-03T07:00:28.845Z,9.00
2019-05-03T07:03:04.970Z,9.40
2019-05-03T07:05:52.518Z,9.30
2019-05-03T07:11:09.729Z,9.50
2019-05-03T07:13:40.000Z,9.70
2019-05-03T07:18:39.386Z,9.60
2019-05-03T07:23:38.838Z,9.50
2019-05-03T07:26:08.745Z,9.60
2019-05-03T07:28:46.917Z,9.60
2019-05-03T07:31:10.206Z,9.70
2019-05-03T07:33:40.409Z,9.50
2019-05-03T07:36:10.346Z,9.70
2019-05-03T07:38:40.311Z,9.70
2019-05-03T07:41:10.271Z,9.60
2019-05-03T07:48:38.666Z,9.40
2019-05-03T07:51:08.531Z,9.30
2019-05-03T07:53:38.883Z,9.30
2019-05-03T07:56:12.188Z,9.40
2019-05-03T07:58:46.195Z,9.40
2019-05-03T08:01:30.098Z,9.60
2019-05-03T08:04:00.098Z,9.70
2019-05-03T08:06:30.031Z,9.60
2019-05-03T08:09:00.169Z,10.00
2019-05-03T08:11:30.088Z,10.10
2019-05-03T08:16:31.005Z,10.10
2019-05-03T08:19:00.971Z,10.30
2019-05-03T08:21:30.902Z,10.40
2019-05-03T08:24:00.798Z,10.60
2019-05-03T08:26:30.767Z,10.60
2019-05-03T08:29:14.831Z,10.50
2019-05-03T08:31:56.026Z,10.30
2019-05-03T08:34:56.722Z,10.40
2019-05-03T08:37:31.269Z,10.40
2019-05-03T08:40:01.215Z,10.50
2019-05-03T08:42:31.265Z,10.40
2019-05-03T08:45:01.227Z,10.60
2019-05-03T08:50:00.703Z,11.30
2019-05-03T08:52:30.666Z,11.50
2019-05-03T08:57:29.815Z,10.80
2019-05-03T08:59:59.768Z,10.50
2019-05-03T09:04:58.843Z,10.00
2019-05-03T09:10:05.302Z,10.00
2019-05-03T09:12:52.567Z,9.60
2019-05-03T09:15:24.525Z,9.40
2019-05-03T09:17:55.245Z,9.20
2019-05-03T09:20:25.648Z,9.10
2019-05-03T09:22:55.606Z,9.10
2019-05-03T09:25:25.581Z,9.10
2019-05-03T09:27:55.609Z,9.20
2019-05-03T09:35:32.604Z,9.10
2019-05-03T09:40:26.389Z,9.00
2019-05-03T09:42:56.311Z,9.00
2019-05-03T09:45:26.258Z,9.10
2019-05-03T09:47:56.191Z,9.10
2019-05-03T09:50:26.061Z,9.00
2019-05-03T09:57:59.821Z,9.40
2019-05-03T10:00:29.762Z,9.40
2019-05-03T10:05:28.899Z,9.30
2019-05-03T10:07:58.871Z,9.90
2019-05-03T10:10:30.387Z,9.20
2019-05-03T10:13:00.329Z,9.60
2019-05-03T10:15:42.182Z,9.50
2019-05-03T10:18:15.953Z,9.90
2019-05-03T10:23:35.565Z,10.00
2019-05-03T10:26:05.399Z,10.20
2019-05-03T10:31:07.674Z,10.10
2019-05-03T10:33:44.828Z,10.30
2019-05-03T10:38:45.909Z,9.90
2019-05-03T10:43:45.643Z,9.50
2019-05-03T10:46:15.951Z,9.50
2019-05-03T10:51:15.961Z,10.00
2019-05-03T10:53:49.457Z,9.30
2019-05-03T10:56:24.469Z,10.20
2019-05-03T10:58:58.677Z,10.60
2019-05-03T11:01:50.526Z,10.30
2019-05-03T11:06:49.954Z,11.20
2019-05-03T11:09:19.890Z,11.50
2019-05-03T11:11:49.888Z,11.10
2019-05-03T11:19:18.157Z,11.00
2019-05-03T11:29:17.349Z,11.50
2019-05-03T11:34:35.528Z,12.50
2019-05-03T11:37:17.837Z,12.90
2019-05-03T11:39:47.787Z,12.70
2019-05-03T11:42:18.737Z,12.50
2019-05-03T11:44:49.548Z,12.40
2019-05-03T11:47:19.437Z,11.90
2019-05-03T11:49:49.321Z,11.70
2019-05-03T11:52:19.266Z,11.50
2019-05-03T11:54:49.514Z,11.70
2019-05-03T11:57:26.288Z,11.30
2019-05-03T12:02:50.410Z,11.20
2019-05-03T12:05:27.902Z,11.00
2019-05-03T12:07:57.854Z,10.80
2019-05-03T12:10:47.946Z,10.90
2019-05-03T12:15:39.726Z,10.70
2019-05-03T12:18:10.796Z,10.80
2019-05-03T12:20:41.841Z,10.70
2019-05-03T12:23:13.039Z,11.20
2019-05-03T12:25:45.946Z,10.90
2019-05-03T12:28:15.470Z,11.00
2019-05-03T12:33:15.544Z,10.60
2019-05-03T12:35:46.187Z,11.70
2019-05-03T12:38:17.680Z,11.80
2019-05-03T12:40:47.781Z,12.20
2019-05-03T12:43:17.733Z,11.90
2019-05-03T12:50:46.954Z,11.40
2019-05-03T12:53:17.263Z,10.80
2019-05-03T12:55:47.218Z,11.30
2019-05-03T12:58:17.178Z,11.30
2019-05-03T13:01:10.255Z,11.00
2019-05-03T13:03:44.728Z,10.90
2019-05-03T13:06:14.966Z,11.10
2019-05-03T13:08:46.255Z,10.90
2019-05-03T13:11:16.187Z,10.90
2019-05-03T13:16:18.783Z,11.10
2019-05-03T13:18:48.964Z,11.20
2019-05-03T13:21:19.017Z,10.90
2019-05-03T13:23:48.895Z,11.10
2019-05-03T13:26:19.113Z,10.70
2019-05-03T13:28:48.986Z,11.10
2019-05-03T13:31:18.957Z,11.20
2019-05-03T13:33:48.981Z,11.30
2019-05-03T13:36:18.912Z,11.20
2019-05-03T13:38:48.850Z,11.60
2019-05-03T13:41:18.778Z,11.70
2019-05-03T13:51:18.726Z,11.80
2019-05-03T14:03:45.925Z,11.20
2019-05-03T14:06:15.872Z,11.10
2019-05-03T14:08:47.390Z,10.80
2019-05-03T14:16:15.842Z,10.70
2019-05-03T14:34:17.568Z,10.40
2019-05-03T14:36:47.052Z,10.30
2019-05-03T14:39:17.006Z,10.30
2019-05-03T14:44:18.039Z,10.40
2019-05-03T14:46:48.352Z,10.30
2019-05-03T14:49:18.468Z,10.00
2019-05-03T14:51:49.501Z,10.00
2019-05-03T14:54:20.816Z,10.00
2019-05-03T15:00:11.949Z,9.90
2019-05-03T15:10:16.026Z,9.90
2019-05-03T15:12:45.941Z,9.80
2019-05-03T15:15:16.342Z,9.90
2019-05-03T15:17:46.286Z,9.90
2019-05-03T15:20:16.854Z,9.90
2019-05-03T15:22:46.795Z,9.80
2019-05-03T15:25:16.966Z,9.60
2019-05-03T15:30:19.003Z,9.80
2019-05-03T15:32:57.854Z,9.80
2019-05-03T15:40:20.858Z,9.80
2019-05-03T15:45:50.942Z,10.10
2019-05-03T15:48:26.472Z,10.00
2019-05-03T15:55:55.173Z,9.10
2019-05-03T15:58:25.188Z,9.60
2019-05-03T16:18:25.379Z,9.60
2019-05-03T16:23:25.172Z,9.50
2019-05-03T16:25:55.347Z,9.50
2019-05-03T16:28:39.567Z,9.80
2019-05-03T16:31:13.375Z,9.80
2019-05-03T16:33:45.507Z,9.80
2019-05-03T16:53:46.115Z,9.90
2019-05-03T16:56:17.188Z,9.90
2019-05-03T17:09:31.452Z,10.00
2019-05-03T17:12:19.044Z,10.10
2019-05-03T17:17:18.203Z,10.10
2019-05-03T17:19:48.158Z,9.90
2019-05-03T17:22:18.466Z,10.00
2019-05-03T17:24:51.484Z,9.60
2019-05-03T17:29:49.707Z,9.70
2019-05-03T17:32:19.658Z,9.90
2019-05-03T17:34:49.621Z,9.80
2019-05-03T17:37:19.501Z,9.90
2019-05-03T17:45:26.157Z,9.90
2019-05-03T17:50:25.837Z,10.00
2019-05-03T17:53:05.278Z,9.90
2019-05-03T17:55:57.198Z,9.80
2019-05-03T17:58:36.773Z,9.70
2019-05-03T18:06:34.662Z,9.70
2019-05-03T18:09:10.559Z,9.80
2019-05-03T18:11:45.095Z,9.70
2019-05-03T18:19:15.090Z,9.80
2019-05-03T18:21:46.274Z,9.90
2019-05-03T18:24:16.246Z,9.80
2019-05-03T18:26:46.238Z,9.80
2019-05-03T18:31:45.660Z,9.70
2019-05-03T18:34:19.718Z,9.80
2019-05-03T18:36:47.248Z,9.70
2019-05-03T18:39:17.130Z,9.70
2019-05-03T18:41:47.090Z,9.70
2019-05-03T18:44:34.569Z,9.80
2019-05-03T18:49:36.990Z,9.70
2019-05-03T18:52:06.989Z,9.70
2019-05-03T18:54:37.365Z,9.70
2019-05-03T18:59:36.488Z,9.70
2019-05-03T19:02:07.953Z,9.80
2019-05-03T19:04:46.414Z,9.80
2019-05-03T19:07:34.775Z,9.70
2019-05-03T19:10:35.428Z,9.70
2019-05-03T19:13:21.626Z,9.90
2019-05-03T19:15:51.620Z,9.70
2019-05-03T19:20:57.626Z,9.80
2019-05-03T19:25:59.133Z,9.80
2019-05-03T19:28:30.982Z,10.00
2019-05-03T19:31:01.301Z,9.40
2019-05-03T19:33:31.797Z,9.50
2019-05-03T19:36:01.965Z,9.40
2019-05-03T19:43:30.904Z,9.50
2019-05-03T19:46:00.894Z,9.50
2019-05-03T19:51:01.119Z,9.60
2019-05-03T19:53:50.013Z,9.60
2019-05-03T19:56:22.804Z,9.60
2019-05-03T19:58:56.671Z,9.20
2019-05-03T20:01:55.198Z,9.40
2019-05-03T20:04:33.488Z,9.50
2019-05-03T20:07:17.180Z,9.40
2019-05-03T20:09:47.507Z,9.40
2019-05-03T20:12:17.496Z,9.50
2019-05-03T20:14:47.430Z,9.40
2019-05-03T20:19:46.617Z,9.50
2019-05-03T20:22:16.591Z,9.70
2019-05-03T20:24:46.605Z,9.50
2019-05-03T20:32:19.333Z,9.80
2019-05-03T20:34:55.001Z,9.40
2019-05-03T20:37:25.120Z,8.70
2019-05-03T20:39:55.233Z,9.20
2019-05-03T20:45:17.364Z,9.00
2019-05-03T20:47:51.521Z,9.10
2019-05-03T20:50:21.482Z,9.50
2019-05-03T20:52:51.449Z,9.40
2019-05-03T20:55:21.389Z,9.20
2019-05-03T20:57:51.277Z,9.20
2019-05-03T21:00:25.415Z,9.30
2019-05-03T21:02:57.274Z,9.20
2019-05-03T21:05:31.802Z,9.20
2019-05-03T21:07:58.423Z,9.10
2019-05-03T21:10:28.368Z,9.20
2019-05-03T21:21:05.626Z,9.10
2019-05-03T21:26:13.488Z,9.10
2019-05-03T21:31:11.351Z,8.90
2019-05-03T21:33:41.314Z,9.20
2019-05-03T21:36:11.247Z,9.30
2019-05-03T21:38:44.444Z,9.00
2019-05-03T21:41:15.617Z,9.10
2019-05-03T21:46:20.409Z,9.10
2019-05-03T21:48:58.225Z,9.10
2019-05-03T21:51:28.175Z,9.10
2019-05-03T21:53:58.157Z,8.90
2019-05-03T21:56:29.213Z,9.00
2019-05-03T21:58:59.178Z,9.30
2019-05-03T22:01:29.418Z,8.90
2019-05-03T22:03:59.422Z,8.90
2019-05-03T22:06:29.361Z,8.80
2019-05-03T22:08:59.355Z,8.80
2019-05-03T22:11:29.305Z,8.70
2019-05-03T22:14:01.744Z,8.80
2019-05-03T22:16:45.108Z,8.60
2019-05-03T22:19:19.347Z,8.70
2019-05-03T22:21:55.281Z,8.70
2019-05-03T22:24:44.696Z,8.80
2019-05-03T22:27:16.696Z,8.60
2019-05-03T22:29:46.642Z,8.70
2019-05-03T22:32:16.578Z,8.60
2019-05-03T22:37:16.607Z,8.70
2019-05-03T22:42:17.978Z,8.60
2019-05-03T22:44:47.958Z,8.90
2019-05-03T22:47:17.873Z,8.50
2019-05-03T22:54:46.205Z,8.60
2019-05-03T22:59:45.319Z,8.00
2019-05-03T23:02:17.189Z,8.50
2019-05-03T23:04:46.814Z,8.50
2019-05-03T23:09:46.043Z,8.60
2019-05-03T23:12:16.054Z,8.60
2019-05-03T23:17:15.566Z,8.50
2019-05-03T23:19:48.669Z,8.30
2019-05-03T23:22:25.053Z,7.90
2019-05-03T23:24:55.110Z,8.20
2019-05-03T23:27:25.190Z,8.30
2019-05-03T23:29:55.525Z,7.30
2019-05-03T23:32:25.484Z,8.00
2019-05-03T23:34:55.780Z,7.80
2019-05-03T23:37:25.642Z,7.70
2019-05-03T23:39:55.695Z,7.90
2019-05-03T23:42:25.948Z,7.90
2019-05-03T23:44:55.904Z,7.90
2019-05-03T23:47:37.318Z,8.10
2019-05-03T23:50:09.211Z,7.90
2019-05-03T23:52:39.139Z,7.80
2019-05-03T23:55:19.893Z,7.90
